createdAt,value
2023-05-03T00:03:28.298Z,18.50
2023-05-03T00:11:33.751Z,18.40
2023-05-03T00:19:42.811Z,18.30
2023-05-03T00:27:57.839Z,19.20
2023-05-03T00:36:10.796Z,19.00
2023-05-03T00:44:16.492Z,19.20
2023-05-03T00:52:24.588Z,19.30
2023-05-03T01:00:30.022Z,19.10
2023-05-03T01:08:44.041Z,18.90
2023-05-03T01:16:54.425Z,18.70
2023-05-03T01:25:08.667Z,19.10
2023-05-03T01:33:23.533Z,18.90
2023-05-03T01:41:32.267Z,18.60
2023-05-03T01:49:37.858Z,18.50
2023-05-03T01:57:45.954Z,18.80
2023-05-03T02:05:51.898Z,18.50
2023-05-03T02:13:59.854Z,18.30
2023-05-03T02:22:05.831Z,18.70
2023-05-03T02:30:15.068Z,18.80
2023-05-03T02:38:22.362Z,18.70
2023-05-03T02:46:31.357Z,18.70
2023-05-03T02:54:36.808Z,18.60
2023-05-03T03:02:51.259Z,18.40
2023-05-03T03:10:56.883Z,18.40
2023-05-03T03:19:05.016Z,18.60
2023-05-03T03:27:10.546Z,18.80
2023-05-03T03:35:19.921Z,18.80
2023-05-03T03:43:25.416Z,18.30
2023-05-03T03:51:34.181Z,18.80
2023-05-03T03:59:39.676Z,18.70
2023-05-03T04:07:47.847Z,19.00
2023-05-03T04:15:58.681Z,19.20
2023-05-03T04:24:10.200Z,19.20
2023-05-03T04:32:17.222Z,19.00
2023-05-03T04:40:25.356Z,18.80
2023-05-03T04:48:39.672Z,18.60
2023-05-03T04:56:47.892Z,18.20
2023-05-03T05:04:56.787Z,18.70
2023-05-03T05:13:05.059Z,18.80
2023-05-03T05:21:11.889Z,19.30
2023-05-03T05:29:20.214Z,19.60
2023-05-03T05:37:26.634Z,19.90
2023-05-03T05:45:38.323Z,20.20
2023-05-03T05:53:44.429Z,20.00
2023-05-03T06:01:52.821Z,20.10
2023-05-03T06:10:00.232Z,20.30
2023-05-03T06:18:15.792Z,19.70
2023-05-03T06:26:23.763Z,19.70
2023-05-03T06:34:32.918Z,19.10
2023-05-03T06:42:38.612Z,19.80
2023-05-03T06:50:51.019Z,20.70
2023-05-03T06:58:56.629Z,20.90
2023-05-03T07:07:04.795Z,20.60
2023-05-03T07:15:11.420Z,21.10
2023-05-03T07:23:19.623Z,21.70
2023-05-03T07:31:26.741Z,21.80
2023-05-03T07:39:34.686Z,21.80
2023-05-03T07:47:40.437Z,21.60
2023-05-03T07:55:48.581Z,21.90
2023-05-03T08:03:54.185Z,22.50
2023-05-03T08:12:02.637Z,22.30
2023-05-03T08:20:09.764Z,22.70
2023-05-03T08:28:18.144Z,22.90
2023-05-03T08:36:23.565Z,23.30
2023-05-03T08:44:33.783Z,23.70
2023-05-03T08:52:39.301Z,24.10
2023-05-03T09:00:47.616Z,24.20
2023-05-03T09:08:53.062Z,24.50
2023-05-03T09:17:17.812Z,24.70
2023-05-03T09:25:23.206Z,24.70
2023-05-03T09:33:35.252Z,24.50
2023-05-03T09:41:41.082Z,24.10
2023-05-03T09:49:49.480Z,25.00
2023-05-03T09:57:59.128Z,24.70
2023-05-03T10:06:09.955Z,25.00
2023-05-03T10:14:15.948Z,25.90
2023-05-03T10:22:24.401Z,25.70
2023-05-03T10:30:35.018Z,26.40
2023-05-03T10:38:43.215Z,26.90
2023-05-03T10:46:49.128Z,27.20
2023-05-03T10:54:57.339Z,27.40
2023-05-03T11:03:29.924Z,27.30
2023-05-03T11:11:42.647Z,27.80
2023-05-03T11:19:48.119Z,28.50
2023-05-03T11:27:56.317Z,32.80
2023-05-03T11:36:03.953Z,32.70
2023-05-03T11:44:17.821Z,30.10
2023-05-03T11:52:25.455Z,30.00
2023-05-03T12:00:34.108Z,36.00
2023-05-03T12:08:42.468Z,41.40
2023-05-03T12:16:56.929Z,43.30
2023-05-03T12:25:04.297Z,41.70
2023-05-03T12:33:15.128Z,43.40
2023-05-03T12:41:52.353Z,47.00
2023-05-03T12:49:52.118Z,49.60
2023-05-03T12:58:30.419Z,46.70
2023-05-03T13:06:26.214Z,44.80
2023-05-03T13:14:32.914Z,37.00
2023-05-03T13:22:41.033Z,33.60
2023-05-03T13:30:47.267Z,32.10
2023-05-03T13:38:55.465Z,30.30
2023-05-03T13:47:01.749Z,28.00
2023-05-03T13:55:10.862Z,27.00
2023-05-03T14:03:16.521Z,26.30
2023-05-03T14:11:24.979Z,25.00
2023-05-03T14:19:30.575Z,24.40
2023-05-03T14:27:38.624Z,24.10
2023-05-03T14:35:44.249Z,23.70
2023-05-03T14:43:52.676Z,23.80
2023-05-03T14:52:00.167Z,23.80
2023-05-03T15:00:14.433Z,23.90
2023-05-03T15:08:22.465Z,24.40
2023-05-03T15:16:30.555Z,24.40
2023-05-03T15:24:36.100Z,23.70
2023-05-03T15:32:44.362Z,23.70
2023-05-03T15:40:50.021Z,24.20
2023-05-03T15:48:58.175Z,23.30
2023-05-03T15:57:05.225Z,24.10
2023-05-03T16:05:14.216Z,24.30
2023-05-03T16:13:19.780Z,24.60
2023-05-03T16:21:27.833Z,23.90
2023-05-03T16:29:39.229Z,24.30
2023-05-03T16:37:47.409Z,23.30
2023-05-03T16:46:00.503Z,23.60
2023-05-03T16:54:08.941Z,23.90
2023-05-03T17:02:14.448Z,24.40
2023-05-03T17:10:22.678Z,23.70
2023-05-03T17:18:28.743Z,23.20
2023-05-03T17:26:37.142Z,23.40
2023-05-03T17:34:42.887Z,22.70
2023-05-03T17:42:51.887Z,22.40
2023-05-03T17:51:03.623Z,22.10
2023-05-03T17:59:12.108Z,22.20
2023-05-03T18:07:17.877Z,22.20
2023-05-03T18:15:26.309Z,22.20
2023-05-03T18:23:31.709Z,21.60
2023-05-03T18:31:39.914Z,21.30
2023-05-03T18:39:45.731Z,21.40
2023-05-03T18:47:53.847Z,21.00
2023-05-03T18:55:59.914Z,21.10
2023-05-03T19:04:08.618Z,21.40
2023-05-03T19:12:14.307Z,20.70
2023-05-03T19:20:22.435Z,20.90
2023-05-03T19:28:28.196Z,21.20
2023-05-03T19:36:36.290Z,20.80
2023-05-03T19:44:42.162Z,20.80
2023-05-03T19:52:55.591Z,20.20
2023-05-03T20:01:01.092Z,20.20
2023-05-03T20:09:09.508Z,20.50
2023-05-03T20:17:15.041Z,19.90
2023-05-03T20:25:26.037Z,20.50
2023-05-03T20:33:31.622Z,20.60
2023-05-03T20:41:39.807Z,20.30
2023-05-03T20:49:45.301Z,19.40
2023-05-03T20:57:53.365Z,19.80
2023-05-03T21:05:59.952Z,19.50
2023-05-03T21:14:08.091Z,19.30
2023-05-03T21:22:13.657Z,19.20
2023-05-03T21:30:22.520Z,20.00
2023-05-03T21:38:28.606Z,20.00
2023-05-03T21:46:36.600Z,19.90
2023-05-03T21:54:42.048Z,19.10
2023-05-03T22:02:50.475Z,19.10
2023-05-03T22:10:56.421Z,19.10
2023-05-03T22:19:04.536Z,19.30
2023-05-03T22:27:09.989Z,18.60
2023-05-03T22:35:18.492Z,18.80
2023-05-03T22:43:23.860Z,19.10
2023-05-03T22:51:32.029Z,19.40
2023-05-03T22:59:37.919Z,19.10
2023-05-03T23:07:46.231Z,19.30
2023-05-03T23:15:51.824Z,19.30
2023-05-03T23:24:02.990Z,19.10
2023-05-03T23:32:08.591Z,18.80
2023-05-03T23:40:17.322Z,18.70
2023-05-03T23:48:22.741Z,18.30
2023-05-03T23:56:30.955Z,17.70
